sensor_id;sensor_type;location;lat;lon;timestamp;temperature;humidity
13589;DHT22;6865;52.552;13.434;2022-12-17T00:01:54;-0.90;99.90
13589;DHT22;6865;52.552;13.434;2022-12-17T00:04:39;-0.90;99.90
13589;DHT22;6865;52.552;13.434;2022-12-17T00:07:24;-0.80;99.90
13589;DHT22;6865;52.552;13.434;2022-12-17T00:10:10;-0.80;99.90
13589;DHT22;6865;52.552;13.434;2022-12-17T00:12:55;-0.80;99.90
13589;DHT22;6865;52.552;13.434;2022-12-17T00:15:40;-0.80;99.90
13589;DHT22;6865;52.552;13.434;2022-12-17T00:18:26;-0.80;99.90
13589;DHT22;6865;52.552;13.434;2022-12-17T00:21:11;-0.80;99.90
13589;DHT22;6865;52.552;13.434;2022-12-17T00:23:57;-0.80;99.90
13589;DHT22;6865;52.552;13.434;2022-12-17T00:26:42;-0.80;99.90
13589;DHT22;6865;52.552;13.434;2022-12-17T00:29:27;-0.80;99.90
13589;DHT22;6865;52.552;13.434;2022-12-17T00:32:13;-0.80;99.90
13589;DHT22;6865;52.552;13.434;2022-12-17T00:34:58;-1.00;99.90
13589;DHT22;6865;52.552;13.434;2022-12-17T00:37:47;-0.80;99.90
13589;DHT22;6865;52.552;13.434;2022-12-17T00:40:32;-0.80;99.90
13589;DHT22;6865;52.552;13.434;2022-12-17T00:43:17;-0.80;99.90
13589;DHT22;6865;52.552;13.434;2022-12-17T00:46:03;-0.70;99.90
13589;DHT22;6865;52.552;13.434;2022-12-17T00:48:49;-0.70;99.90
13589;DHT22;6865;52.552;13.434;2022-12-17T00:51:34;-0.80;99.90
13589;DHT22;6865;52.552;13.434;2022-12-17T00:54:19;-0.80;99.90
13589;DHT22;6865;52.552;13.434;2022-12-17T00:57:04;-0.80;99.90
13589;DHT22;6865;52.552;13.434;2022-12-17T00:59:50;-0.70;99.90
13589;DHT22;6865;52.552;13.434;2022-12-17T01:02:35;-0.80;99.90
13589;DHT22;6865;52.552;13.434;2022-12-17T01:05:21;-1.20;99.90
13589;DHT22;6865;52.552;13.434;2022-12-17T01:08:12;-1.00;99.90
13589;DHT22;6865;52.552;13.434;2022-12-17T01:11:03;-0.80;99.90
13589;DHT22;6865;52.552;13.434;2022-12-17T01:13:48;-0.80;99.90
13589;DHT22;6865;52.552;13.434;2022-12-17T01:16:34;-0.90;99.90
13589;DHT22;6865;52.552;13.434;2022-12-17T01:19:30;-0.90;99.90
13589;DHT22;6865;52.552;13.434;2022-12-17T01:22:15;-0.80;99.90
13589;DHT22;6865;52.552;13.434;2022-12-17T01:25:01;-0.80;99.90
13589;DHT22;6865;52.552;13.434;2022-12-17T01:27:49;-0.80;99.90
13589;DHT22;6865;52.552;13.434;2022-12-17T01:30:36;-0.80;99.90
13589;DHT22;6865;52.552;13.434;2022-12-17T01:33:22;-0.80;99.90
13589;DHT22;6865;52.552;13.434;2022-12-17T01:36:07;-0.80;99.90
13589;DHT22;6865;52.552;13.434;2022-12-17T01:38:52;-0.80;99.90
13589;DHT22;6865;52.552;13.434;2022-12-17T01:41:38;-0.80;99.90
13589;DHT22;6865;52.552;13.434;2022-12-17T01:47:31;-0.80;99.90
13589;DHT22;6865;52.552;13.434;2022-12-17T01:50:23;-0.80;99.90
13589;DHT22;6865;52.552;13.434;2022-12-17T01:53:33;-0.80;99.90
13589;DHT22;6865;52.552;13.434;2022-12-17T01:56:18;-0.80;99.90
13589;DHT22;6865;52.552;13.434;2022-12-17T01:59:05;-0.80;99.90
13589;DHT22;6865;52.552;13.434;2022-12-17T02:01:51;-0.80;99.90
13589;DHT22;6865;52.552;13.434;2022-12-17T02:04:38;-0.80;99.90
13589;DHT22;6865;52.552;13.434;2022-12-17T02:07:45;-1.00;99.90
13589;DHT22;6865;52.552;13.434;2022-12-17T02:10:43;-0.90;99.90
13589;DHT22;6865;52.552;13.434;2022-12-17T02:13:37;-0.90;99.90
13589;DHT22;6865;52.552;13.434;2022-12-17T02:16:36;-0.90;99.90
13589;DHT22;6865;52.552;13.434;2022-12-17T02:23:20;-1.00;99.90
13589;DHT22;6865;52.552;13.434;2022-12-17T02:26:17;-1.00;99.90
13589;DHT22;6865;52.552;13.434;2022-12-17T02:29:08;-1.00;99.90
13589;DHT22;6865;52.552;13.434;2022-12-17T02:31:53;-0.90;99.90
13589;DHT22;6865;52.552;13.434;2022-12-17T02:34:45;-0.90;99.90
13589;DHT22;6865;52.552;13.434;2022-12-17T02:37:31;-0.90;99.90
13589;DHT22;6865;52.552;13.434;2022-12-17T02:40:18;-0.90;99.90
13589;DHT22;6865;52.552;13.434;2022-12-17T02:43:05;-0.90;99.90
13589;DHT22;6865;52.552;13.434;2022-12-17T02:45:55;-0.80;99.90
13589;DHT22;6865;52.552;13.434;2022-12-17T02:48:40;-0.90;99.90
13589;DHT22;6865;52.552;13.434;2022-12-17T02:51:26;-0.90;99.90
13589;DHT22;6865;52.552;13.434;2022-12-17T02:54:11;-0.80;99.90
13589;DHT22;6865;52.552;13.434;2022-12-17T02:56:56;-0.90;99.90
13589;DHT22;6865;52.552;13.434;2022-12-17T02:59:42;-0.90;99.90
13589;DHT22;6865;52.552;13.434;2022-12-17T03:02:27;-0.90;99.90
13589;DHT22;6865;52.552;13.434;2022-12-17T03:05:13;-0.70;99.90
13589;DHT22;6865;52.552;13.434;2022-12-17T03:08:13;-1.00;99.90
13589;DHT22;6865;52.552;13.434;2022-12-17T03:10:58;-1.00;99.90
13589;DHT22;6865;52.552;13.434;2022-12-17T03:13:44;-0.90;99.90
13589;DHT22;6865;52.552;13.434;2022-12-17T03:16:29;-0.90;99.90
13589;DHT22;6865;52.552;13.434;2022-12-17T03:19:15;-0.90;99.90
13589;DHT22;6865;52.552;13.434;2022-12-17T03:22:03;-0.90;99.90
13589;DHT22;6865;52.552;13.434;2022-12-17T03:24:48;-0.90;99.90
13589;DHT22;6865;52.552;13.434;2022-12-17T03:27:33;-0.90;99.90
13589;DHT22;6865;52.552;13.434;2022-12-17T03:30:19;-0.90;99.90
13589;DHT22;6865;52.552;13.434;2022-12-17T03:33:07;-1.00;99.90
13589;DHT22;6865;52.552;13.434;2022-12-17T03:35:55;-0.90;99.90
13589;DHT22;6865;52.552;13.434;2022-12-17T03:38:40;-1.00;99.90
13589;DHT22;6865;52.552;13.434;2022-12-17T03:41:25;-1.00;99.90
13589;DHT22;6865;52.552;13.434;2022-12-17T03:44:11;-1.00;99.90
13589;DHT22;6865;52.552;13.434;2022-12-17T03:46:56;-1.10;99.90
13589;DHT22;6865;52.552;13.434;2022-12-17T03:49:41;-0.80;99.90
13589;DHT22;6865;52.552;13.434;2022-12-17T03:52:27;-1.10;99.90
13589;DHT22;6865;52.552;13.434;2022-12-17T03:55:12;-1.30;99.90
13589;DHT22;6865;52.552;13.434;2022-12-17T03:57:57;-1.30;99.90
13589;DHT22;6865;52.552;13.434;2022-12-17T04:00:43;-1.20;99.90
13589;DHT22;6865;52.552;13.434;2022-12-17T04:03:28;-0.90;99.90
13589;DHT22;6865;52.552;13.434;2022-12-17T04:06:13;-1.20;99.90
13589;DHT22;6865;52.552;13.434;2022-12-17T04:08:59;-1.20;99.90
13589;DHT22;6865;52.552;13.434;2022-12-17T04:11:44;-1.20;99.90
13589;DHT22;6865;52.552;13.434;2022-12-17T04:14:30;-1.20;99.90
13589;DHT22;6865;52.552;13.434;2022-12-17T04:17:15;-1.00;99.90
13589;DHT22;6865;52.552;13.434;2022-12-17T04:20:01;-1.20;99.90
13589;DHT22;6865;52.552;13.434;2022-12-17T04:22:46;-1.50;99.90
13589;DHT22;6865;52.552;13.434;2022-12-17T04:25:45;-1.20;99.90
13589;DHT22;6865;52.552;13.434;2022-12-17T04:28:30;-1.20;99.90
13589;DHT22;6865;52.552;13.434;2022-12-17T04:31:15;-0.90;99.90
13589;DHT22;6865;52.552;13.434;2022-12-17T04:34:01;-1.20;99.90
13589;DHT22;6865;52.552;13.434;2022-12-17T04:36:46;-1.20;99.90
13589;DHT22;6865;52.552;13.434;2022-12-17T04:39:32;-1.10;99.90
13589;DHT22;6865;52.552;13.434;2022-12-17T04:42:17;-1.20;99.90
13589;DHT22;6865;52.552;13.434;2022-12-17T04:45:02;-1.10;99.90
13589;DHT22;6865;52.552;13.434;2022-12-17T04:47:48;-1.20;99.90
13589;DHT22;6865;52.552;13.434;2022-12-17T04:50:33;-1.20;99.90
13589;DHT22;6865;52.552;13.434;2022-12-17T04:53:19;-1.60;99.90
13589;DHT22;6865;52.552;13.434;2022-12-17T04:56:05;-1.40;99.90
13589;DHT22;6865;52.552;13.434;2022-12-17T04:58:50;-1.50;99.90
13589;DHT22;6865;52.552;13.434;2022-12-17T05:01:35;-1.60;99.90
13589;DHT22;6865;52.552;13.434;2022-12-17T05:04:21;-1.70;99.90
13589;DHT22;6865;52.552;13.434;2022-12-17T05:07:07;-1.70;99.90
13589;DHT22;6865;52.552;13.434;2022-12-17T05:09:52;-1.50;99.90
13589;DHT22;6865;52.552;13.434;2022-12-17T05:12:37;-1.80;99.90
13589;DHT22;6865;52.552;13.434;2022-12-17T05:15:25;-1.40;99.90
13589;DHT22;6865;52.552;13.434;2022-12-17T05:18:18;-1.30;99.90
13589;DHT22;6865;52.552;13.434;2022-12-17T05:21:03;-0.80;99.90
13589;DHT22;6865;52.552;13.434;2022-12-17T05:23:48;-1.10;99.90
13589;DHT22;6865;52.552;13.434;2022-12-17T05:26:34;-1.10;99.90
13589;DHT22;6865;52.552;13.434;2022-12-17T05:29:19;-1.10;99.90
13589;DHT22;6865;52.552;13.434;2022-12-17T05:32:05;-1.10;99.90
13589;DHT22;6865;52.552;13.434;2022-12-17T05:34:50;-1.20;99.90
13589;DHT22;6865;52.552;13.434;2022-12-17T05:37:35;-1.20;99.90
13589;DHT22;6865;52.552;13.434;2022-12-17T05:40:20;-1.20;99.90
13589;DHT22;6865;52.552;13.434;2022-12-17T05:43:10;-1.20;99.90
13589;DHT22;6865;52.552;13.434;2022-12-17T05:45:59;-1.20;99.90
13589;DHT22;6865;52.552;13.434;2022-12-17T05:48:44;-1.20;99.90
13589;DHT22;6865;52.552;13.434;2022-12-17T05:51:30;-1.10;99.90
13589;DHT22;6865;52.552;13.434;2022-12-17T05:54:15;-1.20;99.90
13589;DHT22;6865;52.552;13.434;2022-12-17T05:57:00;-1.20;99.90
13589;DHT22;6865;52.552;13.434;2022-12-17T05:59:46;-0.90;99.90
13589;DHT22;6865;52.552;13.434;2022-12-17T06:02:31;-1.50;99.90
13589;DHT22;6865;52.552;13.434;2022-12-17T06:05:17;-1.60;99.90
13589;DHT22;6865;52.552;13.434;2022-12-17T06:08:06;-1.80;99.90
13589;DHT22;6865;52.552;13.434;2022-12-17T06:10:52;-1.90;99.90
13589;DHT22;6865;52.552;13.434;2022-12-17T06:13:38;-1.90;99.90
13589;DHT22;6865;52.552;13.434;2022-12-17T06:16:23;-2.00;99.90
13589;DHT22;6865;52.552;13.434;2022-12-17T06:19:08;-2.10;99.90
13589;DHT22;6865;52.552;13.434;2022-12-17T06:21:54;-2.20;99.90
13589;DHT22;6865;52.552;13.434;2022-12-17T06:24:39;-2.20;99.90
13589;DHT22;6865;52.552;13.434;2022-12-17T06:27:24;-2.20;99.90
13589;DHT22;6865;52.552;13.434;2022-12-17T06:30:10;-2.10;99.90
13589;DHT22;6865;52.552;13.434;2022-12-17T06:33:06;-1.90;99.90
13589;DHT22;6865;52.552;13.434;2022-12-17T06:35:52;-1.80;99.90
13589;DHT22;6865;52.552;13.434;2022-12-17T06:38:46;-1.90;99.90
13589;DHT22;6865;52.552;13.434;2022-12-17T06:41:32;-2.10;99.90
13589;DHT22;6865;52.552;13.434;2022-12-17T06:44:17;-2.00;99.90
13589;DHT22;6865;52.552;13.434;2022-12-17T06:47:02;-1.90;99.90
13589;DHT22;6865;52.552;13.434;2022-12-17T06:49:48;-1.70;99.90
13589;DHT22;6865;52.552;13.434;2022-12-17T06:52:33;-1.60;99.90
13589;DHT22;6865;52.552;13.434;2022-12-17T06:55:19;-1.50;99.90
13589;DHT22;6865;52.552;13.434;2022-12-17T06:58:04;-1.50;99.90
13589;DHT22;6865;52.552;13.434;2022-12-17T07:00:50;-1.40;99.90
13589;DHT22;6865;52.552;13.434;2022-12-17T07:03:35;-1.50;99.90
13589;DHT22;6865;52.552;13.434;2022-12-17T07:06:21;-1.40;99.90
13589;DHT22;6865;52.552;13.434;2022-12-17T07:09:06;-1.50;99.90
13589;DHT22;6865;52.552;13.434;2022-12-17T07:11:51;-1.50;99.90
13589;DHT22;6865;52.552;13.434;2022-12-17T07:14:37;-1.60;99.90
13589;DHT22;6865;52.552;13.434;2022-12-17T07:17:22;-1.60;99.90
13589;DHT22;6865;52.552;13.434;2022-12-17T07:20:08;-1.60;99.90
13589;DHT22;6865;52.552;13.434;2022-12-17T07:22:55;-1.60;99.90
13589;DHT22;6865;52.552;13.434;2022-12-17T07:25:41;-1.60;99.90
13589;DHT22;6865;52.552;13.434;2022-12-17T07:28:26;-1.60;99.90
13589;DHT22;6865;52.552;13.434;2022-12-17T07:31:12;-1.60;99.90
13589;DHT22;6865;52.552;13.434;2022-12-17T07:33:57;-1.70;99.90
13589;DHT22;6865;52.552;13.434;2022-12-17T07:36:42;-1.90;99.90
13589;DHT22;6865;52.552;13.434;2022-12-17T07:39:28;-2.20;99.90
13589;DHT22;6865;52.552;13.434;2022-12-17T07:42:13;-2.30;99.90
13589;DHT22;6865;52.552;13.434;2022-12-17T07:44:58;-2.30;99.90
13589;DHT22;6865;52.552;13.434;2022-12-17T07:47:51;-2.10;99.90
13589;DHT22;6865;52.552;13.434;2022-12-17T07:50:37;-2.10;99.90
13589;DHT22;6865;52.552;13.434;2022-12-17T07:53:22;-1.90;99.90
13589;DHT22;6865;52.552;13.434;2022-12-17T07:56:09;-1.80;99.90
13589;DHT22;6865;52.552;13.434;2022-12-17T07:58:54;-1.60;99.90
13589;DHT22;6865;52.552;13.434;2022-12-17T08:01:40;-1.50;99.90
13589;DHT22;6865;52.552;13.434;2022-12-17T08:04:25;-1.50;99.90
13589;DHT22;6865;52.552;13.434;2022-12-17T08:07:10;-1.30;99.90
13589;DHT22;6865;52.552;13.434;2022-12-17T08:09:56;-1.40;99.90
13589;DHT22;6865;52.552;13.434;2022-12-17T08:12:41;-1.50;99.90
13589;DHT22;6865;52.552;13.434;2022-12-17T08:15:26;-1.50;99.90
13589;DHT22;6865;52.552;13.434;2022-12-17T08:18:12;-1.50;99.90
13589;DHT22;6865;52.552;13.434;2022-12-17T08:20:57;-1.60;99.90
13589;DHT22;6865;52.552;13.434;2022-12-17T08:23:43;-1.70;99.90
13589;DHT22;6865;52.552;13.434;2022-12-17T08:26:28;-1.90;99.90
13589;DHT22;6865;52.552;13.434;2022-12-17T08:29:14;-1.70;99.90
13589;DHT22;6865;52.552;13.434;2022-12-17T08:31:59;-1.50;99.90
13589;DHT22;6865;52.552;13.434;2022-12-17T08:34:44;-1.40;99.90
13589;DHT22;6865;52.552;13.434;2022-12-17T08:37:30;-1.20;99.90
13589;DHT22;6865;52.552;13.434;2022-12-17T08:40:15;-1.30;99.90
13589;DHT22;6865;52.552;13.434;2022-12-17T08:43:01;-1.20;99.90
13589;DHT22;6865;52.552;13.434;2022-12-17T08:45:47;-1.10;99.90
13589;DHT22;6865;52.552;13.434;2022-12-17T08:48:32;-1.20;99.90
13589;DHT22;6865;52.552;13.434;2022-12-17T08:51:18;-1.20;99.90
13589;DHT22;6865;52.552;13.434;2022-12-17T08:54:03;-1.50;99.90
13589;DHT22;6865;52.552;13.434;2022-12-17T08:56:48;-1.70;99.90
13589;DHT22;6865;52.552;13.434;2022-12-17T08:59:34;-1.70;99.90
13589;DHT22;6865;52.552;13.434;2022-12-17T09:02:20;-2.00;99.90
13589;DHT22;6865;52.552;13.434;2022-12-17T09:05:05;-1.90;99.90
13589;DHT22;6865;52.552;13.434;2022-12-17T09:08:05;-1.60;99.90
13589;DHT22;6865;52.552;13.434;2022-12-17T09:10:51;-1.60;99.90
13589;DHT22;6865;52.552;13.434;2022-12-17T09:13:37;-1.50;99.90
13589;DHT22;6865;52.552;13.434;2022-12-17T09:16:23;-1.40;99.90
13589;DHT22;6865;52.552;13.434;2022-12-17T09:19:09;-1.20;99.90
13589;DHT22;6865;52.552;13.434;2022-12-17T09:21:55;-1.20;99.90
13589;DHT22;6865;52.552;13.434;2022-12-17T09:24:40;-1.40;99.90
13589;DHT22;6865;52.552;13.434;2022-12-17T09:27:25;-1.70;99.90
13589;DHT22;6865;52.552;13.434;2022-12-17T09:30:11;0.10;99.90
13589;DHT22;6865;52.552;13.434;2022-12-17T09:32:56;-1.50;99.90
13589;DHT22;6865;52.552;13.434;2022-12-17T09:35:41;-1.90;99.90
13589;DHT22;6865;52.552;13.434;2022-12-17T09:38:27;-1.50;99.90
13589;DHT22;6865;52.552;13.434;2022-12-17T09:41:42;-1.30;99.90
13589;DHT22;6865;52.552;13.434;2022-12-17T09:44:43;-1.40;99.90
13589;DHT22;6865;52.552;13.434;2022-12-17T09:47:56;-1.30;99.90
13589;DHT22;6865;52.552;13.434;2022-12-17T09:50:45;-1.00;99.90
13589;DHT22;6865;52.552;13.434;2022-12-17T09:53:59;-0.90;99.90
13589;DHT22;6865;52.552;13.434;2022-12-17T09:56:45;-0.80;99.90
13589;DHT22;6865;52.552;13.434;2022-12-17T09:59:35;-0.80;99.90
13589;DHT22;6865;52.552;13.434;2022-12-17T10:02:25;-0.80;99.90
13589;DHT22;6865;52.552;13.434;2022-12-17T10:05:20;-0.80;99.90
13589;DHT22;6865;52.552;13.434;2022-12-17T10:08:10;-0.90;99.90
13589;DHT22;6865;52.552;13.434;2022-12-17T10:11:08;-0.90;99.90
13589;DHT22;6865;52.552;13.434;2022-12-17T10:14:01;-0.90;99.90
13589;DHT22;6865;52.552;13.434;2022-12-17T10:16:47;-0.90;99.90
13589;DHT22;6865;52.552;13.434;2022-12-17T10:19:39;-0.90;99.90
13589;DHT22;6865;52.552;13.434;2022-12-17T10:22:25;-1.00;99.90
13589;DHT22;6865;52.552;13.434;2022-12-17T10:25:29;-1.20;99.90
13589;DHT22;6865;52.552;13.434;2022-12-17T10:28:19;-1.10;99.90
13589;DHT22;6865;52.552;13.434;2022-12-17T10:31:08;-1.30;99.90
13589;DHT22;6865;52.552;13.434;2022-12-17T10:33:55;-1.10;99.90
13589;DHT22;6865;52.552;13.434;2022-12-17T10:36:45;-0.90;99.90
13589;DHT22;6865;52.552;13.434;2022-12-17T10:39:32;-1.20;99.90
13589;DHT22;6865;52.552;13.434;2022-12-17T10:42:26;-1.20;99.90
13589;DHT22;6865;52.552;13.434;2022-12-17T10:45:32;-1.20;99.90
13589;DHT22;6865;52.552;13.434;2022-12-17T10:51:35;-0.80;99.90
13589;DHT22;6865;52.552;13.434;2022-12-17T10:54:31;-0.70;99.90
13589;DHT22;6865;52.552;13.434;2022-12-17T10:57:33;-0.70;99.90
13589;DHT22;6865;52.552;13.434;2022-12-17T11:00:21;-1.00;99.90
13589;DHT22;6865;52.552;13.434;2022-12-17T11:06:33;-0.80;99.90
13589;DHT22;6865;52.552;13.434;2022-12-17T11:09:44;-1.20;99.90
13589;DHT22;6865;52.552;13.434;2022-12-17T11:12:43;-1.20;99.90
13589;DHT22;6865;52.552;13.434;2022-12-17T11:15:38;-1.00;99.90
13589;DHT22;6865;52.552;13.434;2022-12-17T11:21:24;-1.40;99.90
13589;DHT22;6865;52.552;13.434;2022-12-17T11:24:12;-1.30;99.90
13589;DHT22;6865;52.552;13.434;2022-12-17T11:27:01;-1.10;99.90
13589;DHT22;6865;52.552;13.434;2022-12-17T11:29:47;-0.90;99.90
13589;DHT22;6865;52.552;13.434;2022-12-17T11:36:01;-0.80;99.90
13589;DHT22;6865;52.552;13.434;2022-12-17T11:39:10;-0.70;99.90
13589;DHT22;6865;52.552;13.434;2022-12-17T11:42:13;-0.70;99.90
13589;DHT22;6865;52.552;13.434;2022-12-17T11:45:30;-0.90;99.90
13589;DHT22;6865;52.552;13.434;2022-12-17T11:48:54;-0.30;99.90
13589;DHT22;6865;52.552;13.434;2022-12-17T11:52:08;-1.30;99.90
13589;DHT22;6865;52.552;13.434;2022-12-17T11:55:14;-1.50;99.90
13589;DHT22;6865;52.552;13.434;2022-12-17T11:58:04;-1.80;99.90
13589;DHT22;6865;52.552;13.434;2022-12-17T12:07:48;-1.80;99.90
13589;DHT22;6865;52.552;13.434;2022-12-17T12:11:11;-2.00;99.90
13589;DHT22;6865;52.552;13.434;2022-12-17T12:14:17;-1.90;99.90
13589;DHT22;6865;52.552;13.434;2022-12-17T12:20:28;-1.90;99.90
13589;DHT22;6865;52.552;13.434;2022-12-17T12:23:31;-1.70;99.90
13589;DHT22;6865;52.552;13.434;2022-12-17T12:26:22;-1.60;99.90
13589;DHT22;6865;52.552;13.434;2022-12-17T12:29:20;-1.40;99.90
13589;DHT22;6865;52.552;13.434;2022-12-17T12:32:31;-1.30;99.90
13589;DHT22;6865;52.552;13.434;2022-12-17T12:35:21;-1.20;99.90
13589;DHT22;6865;52.552;13.434;2022-12-17T12:38:17;-1.10;99.90
13589;DHT22;6865;52.552;13.434;2022-12-17T12:41:32;-1.10;99.90
13589;DHT22;6865;52.552;13.434;2022-12-17T12:47:41;-1.20;99.90
13589;DHT22;6865;52.552;13.434;2022-12-17T12:50:52;-1.00;99.90
13589;DHT22;6865;52.552;13.434;2022-12-17T12:53:39;-1.00;99.90
13589;DHT22;6865;52.552;13.434;2022-12-17T12:56:35;-1.20;99.90
13589;DHT22;6865;52.552;13.434;2022-12-17T12:59:35;-1.10;99.90
13589;DHT22;6865;52.552;13.434;2022-12-17T13:02:28;-1.60;99.90
13589;DHT22;6865;52.552;13.434;2022-12-17T13:05:50;-1.50;99.90
13589;DHT22;6865;52.552;13.434;2022-12-17T13:08:22;-1.50;99.90
13589;DHT22;6865;52.552;13.434;2022-12-17T13:10:52;-1.60;99.90
13589;DHT22;6865;52.552;13.434;2022-12-17T13:13:38;-1.90;99.90
13589;DHT22;6865;52.552;13.434;2022-12-17T13:19:34;-1.70;99.90
13589;DHT22;6865;52.552;13.434;2022-12-17T13:24:52;-1.30;99.90
13589;DHT22;6865;52.552;13.434;2022-12-17T13:33:21;-1.20;99.90
13589;DHT22;6865;52.552;13.434;2022-12-17T13:36:17;-1.20;99.90
13589;DHT22;6865;52.552;13.434;2022-12-17T13:41:52;-1.10;99.90
13589;DHT22;6865;52.552;13.434;2022-12-17T13:44:26;-1.10;99.90
13589;DHT22;6865;52.552;13.434;2022-12-17T13:46:55;-1.10;99.90
13589;DHT22;6865;52.552;13.434;2022-12-17T13:49:27;-1.10;99.90
13589;DHT22;6865;52.552;13.434;2022-12-17T13:54:30;-1.20;99.90
13589;DHT22;6865;52.552;13.434;2022-12-17T13:57:15;-1.30;99.90
13589;DHT22;6865;52.552;13.434;2022-12-17T13:59:52;-1.40;99.90
13589;DHT22;6865;52.552;13.434;2022-12-17T14:02:34;-1.60;99.90
13589;DHT22;6865;52.552;13.434;2022-12-17T14:05:05;-1.90;99.90
13589;DHT22;6865;52.552;13.434;2022-12-17T14:07:37;-2.00;99.90
13589;DHT22;6865;52.552;13.434;2022-12-17T14:10:09;-1.90;99.90
13589;DHT22;6865;52.552;13.434;2022-12-17T14:12:40;-1.90;99.90
13589;DHT22;6865;52.552;13.434;2022-12-17T14:15:25;-1.70;99.90
13589;DHT22;6865;52.552;13.434;2022-12-17T14:17:52;-1.60;99.90
13589;DHT22;6865;52.552;13.434;2022-12-17T14:20:22;-1.70;99.90
13589;DHT22;6865;52.552;13.434;2022-12-17T14:23:11;-1.60;99.90
13589;DHT22;6865;52.552;13.434;2022-12-17T14:25:42;-1.80;99.90
13589;DHT22;6865;52.552;13.434;2022-12-17T14:28:28;-1.70;99.90
13589;DHT22;6865;52.552;13.434;2022-12-17T14:34:06;-1.70;99.90
13589;DHT22;6865;52.552;13.434;2022-12-17T14:36:36;-1.90;99.90
13589;DHT22;6865;52.552;13.434;2022-12-17T14:39:15;-1.80;99.90
13589;DHT22;6865;52.552;13.434;2022-12-17T14:41:42;-1.80;99.90
13589;DHT22;6865;52.552;13.434;2022-12-17T14:44:29;-2.00;99.90
13589;DHT22;6865;52.552;13.434;2022-12-17T14:52:46;-2.50;99.90
13589;DHT22;6865;52.552;13.434;2022-12-17T14:55:33;-2.30;99.90
13589;DHT22;6865;52.552;13.434;2022-12-17T14:58:14;-2.10;99.90
13589;DHT22;6865;52.552;13.434;2022-12-17T15:00:53;-1.90;99.90
13589;DHT22;6865;52.552;13.434;2022-12-17T15:03:26;-1.80;99.90
13589;DHT22;6865;52.552;13.434;2022-12-17T15:05:57;-1.70;99.90
13589;DHT22;6865;52.552;13.434;2022-12-17T15:08:34;-1.60;99.90
13589;DHT22;6865;52.552;13.434;2022-12-17T15:11:02;-1.80;99.90
13589;DHT22;6865;52.552;13.434;2022-12-17T15:13:29;-1.90;99.90
13589;DHT22;6865;52.552;13.434;2022-12-17T15:15:56;-1.80;99.90
13589;DHT22;6865;52.552;13.434;2022-12-17T15:18:23;-1.80;99.90
13589;DHT22;6865;52.552;13.434;2022-12-17T15:20:50;-1.80;99.90
13589;DHT22;6865;52.552;13.434;2022-12-17T15:23:18;-1.80;99.90
13589;DHT22;6865;52.552;13.434;2022-12-17T15:25:48;-1.80;99.90
13589;DHT22;6865;52.552;13.434;2022-12-17T15:28:16;-1.80;99.90
13589;DHT22;6865;52.552;13.434;2022-12-17T15:30:44;-1.80;99.90
13589;DHT22;6865;52.552;13.434;2022-12-17T15:33:11;-1.80;99.90
13589;DHT22;6865;52.552;13.434;2022-12-17T15:35:39;-1.80;99.90
13589;DHT22;6865;52.552;13.434;2022-12-17T15:38:06;-1.90;99.90
13589;DHT22;6865;52.552;13.434;2022-12-17T15:40:34;-1.90;99.90
13589;DHT22;6865;52.552;13.434;2022-12-17T15:43:01;-2.10;99.90
13589;DHT22;6865;52.552;13.434;2022-12-17T15:45:42;-2.20;99.90
13589;DHT22;6865;52.552;13.434;2022-12-17T15:48:10;-2.30;99.90
13589;DHT22;6865;52.552;13.434;2022-12-17T15:50:37;-2.40;99.90
13589;DHT22;6865;52.552;13.434;2022-12-17T15:53:04;-2.50;99.90
13589;DHT22;6865;52.552;13.434;2022-12-17T15:55:31;-2.40;99.90
13589;DHT22;6865;52.552;13.434;2022-12-17T15:57:58;-2.20;99.90
13589;DHT22;6865;52.552;13.434;2022-12-17T16:00:24;-2.40;99.90
13589;DHT22;6865;52.552;13.434;2022-12-17T16:02:51;-2.40;99.90
13589;DHT22;6865;52.552;13.434;2022-12-17T16:05:19;-2.40;99.90
13589;DHT22;6865;52.552;13.434;2022-12-17T16:07:46;-2.30;99.90
13589;DHT22;6865;52.552;13.434;2022-12-17T16:10:13;-2.40;99.90
13589;DHT22;6865;52.552;13.434;2022-12-17T16:12:40;-2.50;99.90
13589;DHT22;6865;52.552;13.434;2022-12-17T16:15:08;-2.50;99.90
13589;DHT22;6865;52.552;13.434;2022-12-17T16:17:35;-2.50;99.90
13589;DHT22;6865;52.552;13.434;2022-12-17T16:20:03;-2.30;99.90
13589;DHT22;6865;52.552;13.434;2022-12-17T16:22:31;-2.30;99.90
13589;DHT22;6865;52.552;13.434;2022-12-17T16:24:57;-2.20;99.90
13589;DHT22;6865;52.552;13.434;2022-12-17T16:27:24;-2.10;99.90
13589;DHT22;6865;52.552;13.434;2022-12-17T16:29:51;-1.90;99.90
13589;DHT22;6865;52.552;13.434;2022-12-17T16:32:17;-1.90;99.90
13589;DHT22;6865;52.552;13.434;2022-12-17T16:34:45;-1.60;99.90
13589;DHT22;6865;52.552;13.434;2022-12-17T16:37:12;-1.70;99.90
13589;DHT22;6865;52.552;13.434;2022-12-17T16:39:38;-1.80;99.90
13589;DHT22;6865;52.552;13.434;2022-12-17T16:42:05;-1.90;99.90
13589;DHT22;6865;52.552;13.434;2022-12-17T16:44:32;-2.20;99.90
13589;DHT22;6865;52.552;13.434;2022-12-17T16:46:59;-1.90;99.90
13589;DHT22;6865;52.552;13.434;2022-12-17T16:49:25;-2.00;99.90
13589;DHT22;6865;52.552;13.434;2022-12-17T16:51:54;-2.00;99.90
13589;DHT22;6865;52.552;13.434;2022-12-17T16:54:25;-2.30;99.90
13589;DHT22;6865;52.552;13.434;2022-12-17T16:56:53;-2.30;99.90
13589;DHT22;6865;52.552;13.434;2022-12-17T16:59:19;-2.80;99.90
13589;DHT22;6865;52.552;13.434;2022-12-17T17:01:48;-2.60;99.90
13589;DHT22;6865;52.552;13.434;2022-12-17T17:04:17;-2.70;99.90
13589;DHT22;6865;52.552;13.434;2022-12-17T17:06:47;-2.30;99.90
13589;DHT22;6865;52.552;13.434;2022-12-17T17:09:14;-2.30;99.90
13589;DHT22;6865;52.552;13.434;2022-12-17T17:11:41;-2.20;99.90
13589;DHT22;6865;52.552;13.434;2022-12-17T17:14:15;-2.20;99.90
13589;DHT22;6865;52.552;13.434;2022-12-17T17:16:42;-2.10;99.90
13589;DHT22;6865;52.552;13.434;2022-12-17T17:19:08;-2.00;99.90
13589;DHT22;6865;52.552;13.434;2022-12-17T17:21:36;-1.90;99.90
13589;DHT22;6865;52.552;13.434;2022-12-17T17:24:12;-1.90;99.90
13589;DHT22;6865;52.552;13.434;2022-12-17T17:26:47;-2.00;99.90
13589;DHT22;6865;52.552;13.434;2022-12-17T17:29:13;-1.90;99.90
13589;DHT22;6865;52.552;13.434;2022-12-17T17:31:40;-1.90;99.90
13589;DHT22;6865;52.552;13.434;2022-12-17T17:34:27;-2.10;99.90
13589;DHT22;6865;52.552;13.434;2022-12-17T17:36:54;-2.10;99.90
13589;DHT22;6865;52.552;13.434;2022-12-17T17:39:20;-1.90;99.90
13589;DHT22;6865;52.552;13.434;2022-12-17T17:41:47;-2.10;99.90
13589;DHT22;6865;52.552;13.434;2022-12-17T17:44:14;-2.10;99.90
13589;DHT22;6865;52.552;13.434;2022-12-17T17:46:41;-2.10;99.90
13589;DHT22;6865;52.552;13.434;2022-12-17T17:49:08;-2.20;99.90
13589;DHT22;6865;52.552;13.434;2022-12-17T17:51:38;-2.20;99.90
13589;DHT22;6865;52.552;13.434;2022-12-17T17:54:26;-2.30;99.90
13589;DHT22;6865;52.552;13.434;2022-12-17T17:56:53;-2.40;99.90
13589;DHT22;6865;52.552;13.434;2022-12-17T17:59:20;-2.60;99.90
13589;DHT22;6865;52.552;13.434;2022-12-17T18:01:54;-2.50;99.90
13589;DHT22;6865;52.552;13.434;2022-12-17T18:04:21;-2.10;99.90
13589;DHT22;6865;52.552;13.434;2022-12-17T18:06:49;-2.40;99.90
13589;DHT22;6865;52.552;13.434;2022-12-17T18:09:36;-2.40;99.90
13589;DHT22;6865;52.552;13.434;2022-12-17T18:12:03;-2.40;99.90
13589;DHT22;6865;52.552;13.434;2022-12-17T18:14:49;-2.30;99.90